createdAt,value
2019-01-26T00:01:13.350Z,85.08
2019-01-26T00:03:40.139Z,84.52
2019-01-26T00:06:07.557Z,83.63
2019-01-26T00:08:34.137Z,82.72
2019-01-26T00:11:02.345Z,82.35
2019-01-26T00:13:29.127Z,82.11
2019-01-26T00:15:55.651Z,82.54
2019-01-26T00:18:22.320Z,82.80
2019-01-26T00:20:49.363Z,82.86
2019-01-26T00:23:16.958Z,82.71
2019-01-26T00:25:43.438Z,82.50
2019-01-26T00:28:10.289Z,82.07
2019-01-26T00:30:36.948Z,81.94
2019-01-26T00:33:03.870Z,81.76
2019-01-26T00:35:30.517Z,81.18
2019-01-26T00:37:58.454Z,80.87
2019-01-26T00:40:25.137Z,80.95
2019-01-26T00:42:52.973Z,80.57
2019-01-26T00:45:19.532Z,80.78
2019-01-26T00:47:46.429Z,80.26
2019-01-26T00:50:13.458Z,80.05
2019-01-26T00:52:39.983Z,80.32
2019-01-26T00:55:06.747Z,80.50
2019-01-26T00:57:33.359Z,80.73
2019-01-26T01:00:00.381Z,80.72
2019-01-26T01:02:27.636Z,80.48
2019-01-26T01:04:54.617Z,80.72
2019-01-26T01:07:21.432Z,81.14
2019-01-26T01:09:48.566Z,81.71
2019-01-26T01:12:17.444Z,82.36
2019-01-26T01:14:44.119Z,82.65
2019-01-26T01:17:10.746Z,82.92
2019-01-26T01:19:37.398Z,83.01
2019-01-26T01:22:04.083Z,83.80
2019-01-26T01:24:30.644Z,84.24
2019-01-26T01:26:59.829Z,84.55
2019-01-26T01:29:26.709Z,84.90
2019-01-26T01:31:53.202Z,84.95
2019-01-26T01:34:19.758Z,85.23
2019-01-26T01:36:46.343Z,85.60
2019-01-26T01:39:12.946Z,86.30
2019-01-26T01:41:39.536Z,86.97
2019-01-26T01:44:06.680Z,87.48
2019-01-26T01:46:33.219Z,87.90
2019-01-26T01:48:59.853Z,87.97
2019-01-26T01:51:26.794Z,88.35
2019-01-26T01:53:53.720Z,88.55
2019-01-26T01:56:20.385Z,88.36
2019-01-26T01:58:46.905Z,88.54
2019-01-26T02:01:13.789Z,88.77
2019-01-26T02:03:40.459Z,89.28
2019-01-26T02:06:07.143Z,89.30
2019-01-26T02:08:33.682Z,89.30
2019-01-26T02:11:00.315Z,89.56
2019-01-26T02:13:26.838Z,89.90
2019-01-26T02:15:53.625Z,90.20
2019-01-26T02:18:20.696Z,89.92
2019-01-26T02:20:47.212Z,90.12
2019-01-26T02:23:14.071Z,89.72
2019-01-26T02:25:40.621Z,89.41
2019-01-26T02:28:07.702Z,89.22
2019-01-26T02:30:34.352Z,88.85
2019-01-26T02:33:01.266Z,88.92
2019-01-26T02:35:27.912Z,88.80
2019-01-26T02:37:54.598Z,88.74
2019-01-26T02:40:21.199Z,88.81
2019-01-26T02:42:48.251Z,88.57
2019-01-26T02:45:16.334Z,88.33
2019-01-26T02:47:43.093Z,88.43
2019-01-26T02:50:12.224Z,88.50
2019-01-26T02:52:41.324Z,88.49
2019-01-26T02:55:08.059Z,88.33
2019-01-26T02:57:35.131Z,88.46
2019-01-26T03:00:01.725Z,88.62
2019-01-26T03:02:28.450Z,88.99
2019-01-26T03:04:54.918Z,89.38
2019-01-26T03:07:21.898Z,89.78
2019-01-26T03:09:48.543Z,90.02
2019-01-26T03:12:15.504Z,90.52
2019-01-26T03:14:41.987Z,90.53
2019-01-26T03:17:08.670Z,90.43
2019-01-26T03:19:35.172Z,90.52
2019-01-26T03:22:01.686Z,90.36
2019-01-26T03:24:28.244Z,90.05
2019-01-26T03:26:54.747Z,89.88
2019-01-26T03:29:21.652Z,90.24
2019-01-26T03:31:48.515Z,90.45
2019-01-26T03:34:15.351Z,90.51
2019-01-26T03:36:41.842Z,90.49
2019-01-26T03:39:08.511Z,90.68
2019-01-26T03:41:34.982Z,90.94
2019-01-26T03:44:01.915Z,90.98
2019-01-26T03:46:28.389Z,91.13
2019-01-26T03:48:55.265Z,91.25
2019-01-26T03:51:21.776Z,91.21
2019-01-26T03:53:48.509Z,91.00
2019-01-26T03:56:15.165Z,91.12
2019-01-26T03:58:41.738Z,90.81
2019-01-26T04:01:08.275Z,90.27
2019-01-26T04:03:35.358Z,90.40
2019-01-26T04:06:01.910Z,90.53
2019-01-26T04:08:28.582Z,90.92
2019-01-26T04:10:55.042Z,90.97
2019-01-26T04:13:21.605Z,91.29
2019-01-26T04:15:48.138Z,91.50
2019-01-26T04:18:15.132Z,91.72
2019-01-26T04:20:41.743Z,91.70
2019-01-26T04:23:08.387Z,91.64
2019-01-26T04:25:34.866Z,91.34
2019-01-26T04:28:01.521Z,91.04
2019-01-26T04:30:28.103Z,91.00
2019-01-26T04:32:54.614Z,91.03
2019-01-26T04:35:21.369Z,91.07
2019-01-26T04:37:48.375Z,91.18
2019-01-26T04:40:16.040Z,91.41
2019-01-26T04:42:42.951Z,91.23
2019-01-26T04:45:12.252Z,91.33
2019-01-26T04:47:38.859Z,91.51
2019-01-26T04:50:08.859Z,91.84
2019-01-26T04:52:35.750Z,91.88
2019-01-26T04:55:02.599Z,91.99
2019-01-26T04:57:29.055Z,92.14
2019-01-26T04:59:55.566Z,92.39
2019-01-26T05:02:22.159Z,92.44
2019-01-26T05:04:48.717Z,92.64
2019-01-26T05:07:15.165Z,92.90
2019-01-26T05:09:43.924Z,93.04
2019-01-26T05:12:10.574Z,93.13
2019-01-26T05:14:37.416Z,93.24
2019-01-26T05:17:04.071Z,92.96
2019-01-26T05:19:30.557Z,92.58
2019-01-26T05:21:57.069Z,92.53
2019-01-26T05:24:23.973Z,92.46
2019-01-26T05:26:50.509Z,92.52
2019-01-26T05:29:17.262Z,92.45
2019-01-26T05:31:43.713Z,92.27
2019-01-26T05:34:10.215Z,92.08
2019-01-26T05:36:36.709Z,92.23
2019-01-26T05:39:06.387Z,91.95
2019-01-26T05:41:32.963Z,92.12
2019-01-26T05:43:59.425Z,91.94
2019-01-26T05:46:26.595Z,91.96
2019-01-26T05:48:53.343Z,92.07
2019-01-26T05:51:20.163Z,92.43
2019-01-26T05:53:46.691Z,92.38
2019-01-26T05:56:13.240Z,92.52
2019-01-26T05:58:39.721Z,92.80
2019-01-26T06:01:06.355Z,92.81
2019-01-26T06:03:32.833Z,93.17
2019-01-26T06:05:59.401Z,93.24
2019-01-26T06:08:25.872Z,93.33
2019-01-26T06:10:52.674Z,93.46
2019-01-26T06:13:19.149Z,93.57
2019-01-26T06:15:45.833Z,93.74
2019-01-26T06:18:13.001Z,93.62
2019-01-26T06:20:39.515Z,93.70
2019-01-26T06:23:06.065Z,93.78
2019-01-26T06:25:32.737Z,93.90
2019-01-26T06:27:59.573Z,93.75
2019-01-26T06:30:26.128Z,93.82
2019-01-26T06:32:52.665Z,93.86
2019-01-26T06:35:19.436Z,94.22
2019-01-26T06:37:52.852Z,94.08
2019-01-26T06:40:19.723Z,93.83
2019-01-26T06:42:46.353Z,94.01
2019-01-26T06:45:14.598Z,93.87
2019-01-26T06:47:41.542Z,93.87
2019-01-26T06:50:11.172Z,93.71
2019-01-26T06:52:37.658Z,93.56
2019-01-26T06:55:05.365Z,93.14
2019-01-26T06:57:31.943Z,93.14
2019-01-26T06:59:58.514Z,93.40
2019-01-26T07:02:24.983Z,93.42
2019-01-26T07:04:56.825Z,93.26
2019-01-26T07:07:30.298Z,93.13
2019-01-26T07:09:56.820Z,93.06
2019-01-26T07:12:23.309Z,93.20
2019-01-26T07:14:50.130Z,93.18
2019-01-26T07:17:16.622Z,93.35
2019-01-26T07:19:43.167Z,93.26
2019-01-26T07:22:09.826Z,93.10
2019-01-26T07:24:36.329Z,92.90
2019-01-26T07:27:03.395Z,92.84
2019-01-26T07:29:29.923Z,92.71
2019-01-26T07:31:56.696Z,92.79
2019-01-26T07:34:23.327Z,92.95
2019-01-26T07:36:49.826Z,92.82
2019-01-26T07:39:16.338Z,92.51
2019-01-26T07:41:43.107Z,92.26
2019-01-26T07:44:09.689Z,92.17
2019-01-26T07:46:36.536Z,92.18
2019-01-26T07:49:03.659Z,92.48
2019-01-26T07:51:30.186Z,92.17
2019-01-26T07:53:56.773Z,92.00
2019-01-26T07:56:24.034Z,92.00
2019-01-26T07:58:50.776Z,92.13
2019-01-26T08:01:17.334Z,91.89
2019-01-26T08:03:43.850Z,91.88
2019-01-26T08:06:10.297Z,91.91
2019-01-26T08:08:37.035Z,91.82
2019-01-26T08:11:03.955Z,91.53
2019-01-26T08:13:31.070Z,91.48
2019-01-26T08:15:57.815Z,91.25
2019-01-26T08:18:24.503Z,91.15
2019-01-26T08:20:51.297Z,91.38
2019-01-26T08:23:18.175Z,91.35
2019-01-26T08:25:44.711Z,91.36
2019-01-26T08:28:11.697Z,91.36
2019-01-26T08:30:43.453Z,91.30
2019-01-26T08:33:10.059Z,91.18
2019-01-26T08:35:36.697Z,91.07
2019-01-26T08:38:03.592Z,91.43
2019-01-26T08:40:30.164Z,91.03
2019-01-26T08:42:56.776Z,91.09
2019-01-26T08:45:24.041Z,91.03
2019-01-26T08:47:50.731Z,90.87
2019-01-26T08:50:24.641Z,90.50
2019-01-26T08:52:51.334Z,90.18
2019-01-26T08:55:18.651Z,89.64
2019-01-26T08:57:45.935Z,89.82
2019-01-26T09:00:17.986Z,89.75
2019-01-26T09:03:04.281Z,89.87
2019-01-26T09:05:34.974Z,89.43
2019-01-26T09:08:03.721Z,89.21
2019-01-26T09:10:32.418Z,89.17
2019-01-26T09:12:59.191Z,89.59
2019-01-26T09:15:27.973Z,89.38
2019-01-26T09:17:55.680Z,88.97
2019-01-26T09:20:22.244Z,88.75
2019-01-26T09:22:48.762Z,88.72
2019-01-26T09:25:15.631Z,88.73
2019-01-26T09:27:42.601Z,88.30
2019-01-26T09:30:10.424Z,88.39
2019-01-26T09:32:36.936Z,88.10
2019-01-26T09:35:04.463Z,88.15
2019-01-26T09:37:35.498Z,88.30
2019-01-26T09:40:02.721Z,88.58
2019-01-26T09:42:29.267Z,89.20
2019-01-26T09:44:56.349Z,89.42
2019-01-26T09:47:22.877Z,89.33
2019-01-26T09:49:49.512Z,89.50
2019-01-26T09:52:16.065Z,89.27
2019-01-26T09:54:43.763Z,89.74
2019-01-26T09:57:10.622Z,89.81
2019-01-26T09:59:37.079Z,89.75
2019-01-26T10:02:06.290Z,89.92
2019-01-26T10:04:32.754Z,89.95
2019-01-26T10:06:59.283Z,89.78
2019-01-26T10:09:25.887Z,89.78
2019-01-26T10:11:53.768Z,89.42
2019-01-26T10:14:21.796Z,89.35
2019-01-26T10:16:48.810Z,89.66
2019-01-26T10:19:15.417Z,89.94
2019-01-26T10:21:42.469Z,89.98
2019-01-26T10:24:09.430Z,90.27
2019-01-26T10:26:37.009Z,90.36
2019-01-26T10:29:03.732Z,90.39
2019-01-26T10:31:30.332Z,90.27
2019-01-26T10:33:58.926Z,90.15
2019-01-26T10:36:30.235Z,90.26
2019-01-26T10:39:01.022Z,89.82
2019-01-26T10:41:50.138Z,89.66
2019-01-26T10:44:22.708Z,89.60
2019-01-26T10:46:49.287Z,89.44
2019-01-26T10:49:16.083Z,89.05
2019-01-26T10:51:43.921Z,89.25
2019-01-26T10:54:10.696Z,89.07
2019-01-26T10:56:37.494Z,88.99
2019-01-26T10:59:04.293Z,88.80
2019-01-26T11:01:30.810Z,88.58
2019-01-26T11:03:57.517Z,88.28
2019-01-26T11:06:27.500Z,88.19
2019-01-26T11:08:54.124Z,88.27
2019-01-26T11:11:21.042Z,88.44
2019-01-26T11:13:47.817Z,88.16
2019-01-26T11:16:14.292Z,88.02
2019-01-26T11:18:40.873Z,87.85
2019-01-26T11:21:07.598Z,87.80
2019-01-26T11:23:34.411Z,87.47
2019-01-26T11:26:03.450Z,87.11
2019-01-26T11:28:30.073Z,87.19
2019-01-26T11:30:56.671Z,87.26
2019-01-26T11:33:23.197Z,87.08
2019-01-26T11:35:49.743Z,86.95
2019-01-26T11:38:16.227Z,86.70
2019-01-26T11:40:43.377Z,86.34
2019-01-26T11:43:11.076Z,86.03
2019-01-26T11:45:49.976Z,86.05
2019-01-26T11:48:20.737Z,85.87
2019-01-26T11:50:51.946Z,86.02
2019-01-26T11:53:19.521Z,86.15
2019-01-26T11:56:15.351Z,85.97
2019-01-26T11:58:42.638Z,85.88
2019-01-26T12:01:38.218Z,85.99
2019-01-26T12:04:24.585Z,86.06
2019-01-26T12:06:58.371Z,86.06
2019-01-26T12:09:26.531Z,86.09
2019-01-26T12:11:53.522Z,86.30
2019-01-26T12:14:20.265Z,86.58
2019-01-26T12:16:47.131Z,86.30
2019-01-26T12:19:13.674Z,86.51
2019-01-26T12:21:40.646Z,86.95
2019-01-26T12:24:08.248Z,87.08
2019-01-26T12:26:34.846Z,87.12
2019-01-26T12:29:01.394Z,87.15
2019-01-26T12:31:28.075Z,86.87
2019-01-26T12:33:55.695Z,86.93
2019-01-26T12:36:22.216Z,86.67
2019-01-26T12:38:48.893Z,86.64
2019-01-26T12:41:15.648Z,86.61
2019-01-26T12:43:42.175Z,86.58
2019-01-26T12:46:09.009Z,86.36
2019-01-26T12:48:35.964Z,86.47
2019-01-26T12:51:04.073Z,86.53
2019-01-26T12:53:30.748Z,86.60
2019-01-26T12:56:01.384Z,86.69
2019-01-26T12:58:27.947Z,86.82
2019-01-26T13:00:54.802Z,86.98
2019-01-26T13:03:21.306Z,86.92
2019-01-26T13:05:48.169Z,86.82
2019-01-26T13:08:14.998Z,86.79
2019-01-26T13:10:44.848Z,86.77
2019-01-26T13:13:11.599Z,86.89
2019-01-26T13:15:38.274Z,87.20
2019-01-26T13:18:05.414Z,87.30
2019-01-26T13:20:32.526Z,87.40
2019-01-26T13:34:32.237Z,87.39
2019-01-26T13:36:59.205Z,87.50
2019-01-26T13:39:25.991Z,87.27
2019-01-26T13:41:53.137Z,87.44
2019-01-26T13:44:21.964Z,87.26
2019-01-26T13:46:48.622Z,87.14
2019-01-26T13:49:15.170Z,87.51
2019-01-26T13:51:43.113Z,87.68
2019-01-26T13:54:09.712Z,88.11
2019-01-26T13:56:36.522Z,88.23
2019-01-26T13:59:03.202Z,88.12
2019-01-26T14:01:31.397Z,88.21
2019-01-26T14:04:02.180Z,88.37
2019-01-26T14:06:29.023Z,88.20
2019-01-26T14:08:56.173Z,88.37
2019-01-26T14:11:22.923Z,88.33
2019-01-26T14:13:49.816Z,88.58
2019-01-26T14:16:16.726Z,88.82
2019-01-26T14:18:43.451Z,88.60
2019-01-26T14:21:10.438Z,88.65
2019-01-26T14:23:37.577Z,88.31
2019-01-26T14:26:04.256Z,88.52
2019-01-26T14:28:30.784Z,88.65
2019-01-26T14:30:59.990Z,88.67
2019-01-26T14:33:26.932Z,88.71
2019-01-26T14:35:53.717Z,88.75
2019-01-26T14:38:20.356Z,88.74
2019-01-26T14:40:47.185Z,88.64
2019-01-26T14:43:13.710Z,88.53
2019-01-26T14:45:40.190Z,88.29
2019-01-26T14:48:07.172Z,87.85
2019-01-26T14:50:33.887Z,87.43
2019-01-26T14:53:00.610Z,87.39
2019-01-26T14:55:27.486Z,86.95
2019-01-26T14:57:54.997Z,86.76
2019-01-26T15:00:24.064Z,86.43
2019-01-26T15:02:50.573Z,86.20
2019-01-26T15:05:17.472Z,85.86
2019-01-26T15:07:43.986Z,85.65
2019-01-26T15:10:10.711Z,85.50
2019-01-26T15:12:37.776Z,85.41
2019-01-26T15:15:05.657Z,85.08
2019-01-26T15:17:33.622Z,84.77
2019-01-26T15:20:05.701Z,85.05
2019-01-26T15:22:30.181Z,85.10
2019-01-26T15:24:57.888Z,84.97
2019-01-26T15:27:25.434Z,85.05
2019-01-26T15:29:51.915Z,85.25
2019-01-26T15:32:21.207Z,85.32
2019-01-26T15:34:49.224Z,85.41
2019-01-26T15:37:16.911Z,85.56
2019-01-26T15:39:45.680Z,85.76
2019-01-26T15:42:12.220Z,86.15
2019-01-26T15:44:38.845Z,86.32
2019-01-26T15:47:05.530Z,86.45
2019-01-26T15:49:33.645Z,86.64
2019-01-26T15:52:00.760Z,86.55
2019-01-26T15:54:28.477Z,86.59
2019-01-26T15:56:55.092Z,86.60
2019-01-26T15:59:21.932Z,86.74
2019-01-26T16:01:48.568Z,86.73
2019-01-26T16:04:15.113Z,86.80
2019-01-26T16:06:41.627Z,86.72
2019-01-26T16:09:08.747Z,86.83
2019-01-26T16:11:35.608Z,87.01
2019-01-26T16:14:02.281Z,87.03
2019-01-26T16:16:29.186Z,87.28
2019-01-26T16:18:55.745Z,87.32
2019-01-26T16:21:22.312Z,87.28
2019-01-26T16:23:48.989Z,86.91
2019-01-26T16:26:15.493Z,86.92
2019-01-26T16:28:42.037Z,86.85
2019-01-26T16:31:09.184Z,86.92
2019-01-26T16:33:35.854Z,86.77
2019-01-26T16:36:03.083Z,86.87
2019-01-26T16:38:30.973Z,86.88
2019-01-26T16:41:05.047Z,86.95
2019-01-26T16:43:33.735Z,86.99
2019-01-26T16:46:00.358Z,86.82
2019-01-26T16:48:28.067Z,87.11
2019-01-26T16:50:54.958Z,87.21
2019-01-26T16:53:21.528Z,87.06
2019-01-26T16:55:48.008Z,86.85
2019-01-26T16:58:14.582Z,86.96
2019-01-26T17:00:43.452Z,87.12
2019-01-26T17:03:10.638Z,87.25
2019-01-26T17:05:37.368Z,87.31
2019-01-26T17:08:04.569Z,87.22
2019-01-26T17:10:34.352Z,87.02
2019-01-26T17:13:04.493Z,87.03
2019-01-26T17:15:32.398Z,86.95
2019-01-26T17:17:59.070Z,86.92
2019-01-26T17:20:27.221Z,86.89
2019-01-26T17:22:54.522Z,86.73
2019-01-26T17:25:21.160Z,86.40
2019-01-26T17:27:48.848Z,85.98
2019-01-26T17:30:20.668Z,86.12
2019-01-26T17:32:47.362Z,86.02
2019-01-26T17:35:16.770Z,85.85
2019-01-26T17:37:43.853Z,85.84
2019-01-26T17:40:13.132Z,85.73
2019-01-26T17:42:40.356Z,85.48
2019-01-26T17:45:07.191Z,85.50
2019-01-26T17:47:33.688Z,85.17
2019-01-26T17:50:00.196Z,85.29
2019-01-26T17:52:30.001Z,85.43
2019-01-26T17:54:56.603Z,85.77
2019-01-26T17:57:23.156Z,85.77
2019-01-26T17:59:49.668Z,85.57
2019-01-26T18:02:16.627Z,85.26
2019-01-26T18:04:43.730Z,85.12
2019-01-26T18:07:10.651Z,84.82
2019-01-26T18:09:37.440Z,84.94
2019-01-26T18:12:04.277Z,84.71
2019-01-26T18:14:30.777Z,84.80
2019-01-26T18:16:57.255Z,84.87
2019-01-26T18:19:24.870Z,85.06
2019-01-26T18:21:51.493Z,84.95
2019-01-26T18:24:17.980Z,85.18
2019-01-26T18:26:44.445Z,85.04
2019-01-26T18:29:11.274Z,84.88
2019-01-26T18:31:37.935Z,84.84
2019-01-26T18:34:04.563Z,84.98
2019-01-26T18:36:33.872Z,85.15
2019-01-26T18:39:00.361Z,85.34
2019-01-26T18:41:27.341Z,85.22
2019-01-26T18:43:54.060Z,85.22
2019-01-26T18:46:20.628Z,84.74
2019-01-26T18:48:47.230Z,84.43
2019-01-26T18:51:13.689Z,84.21
2019-01-26T18:53:40.239Z,84.12
2019-01-26T18:56:06.818Z,83.70
2019-01-26T18:58:33.555Z,83.96
2019-01-26T19:01:00.158Z,83.60
2019-01-26T19:03:37.472Z,83.58
2019-01-26T19:06:04.690Z,83.69
2019-01-26T19:08:31.531Z,83.74
2019-01-26T19:10:58.435Z,83.57
2019-01-26T19:13:25.140Z,83.71
2019-01-26T19:15:51.816Z,83.98
2019-01-26T19:18:18.534Z,84.06
2019-01-26T19:20:45.114Z,83.84
2019-01-26T19:23:11.794Z,83.78
2019-01-26T19:25:38.325Z,84.00
2019-01-26T19:28:05.073Z,84.19
2019-01-26T19:30:33.845Z,84.59
2019-01-26T19:33:00.837Z,84.77
2019-01-26T19:35:28.594Z,85.06
2019-01-26T19:37:55.363Z,85.20
2019-01-26T19:40:22.370Z,85.48
2019-01-26T19:42:48.999Z,85.55
2019-01-26T19:45:17.735Z,85.49
2019-01-26T19:47:46.321Z,85.48
2019-01-26T19:50:15.611Z,85.50
2019-01-26T19:52:42.486Z,85.62
2019-01-26T19:55:09.135Z,86.00
2019-01-26T19:57:38.146Z,86.26
2019-01-26T20:00:07.151Z,86.39
2019-01-26T20:02:34.184Z,86.86
2019-01-26T20:05:00.730Z,87.15
2019-01-26T20:07:27.351Z,87.35
2019-01-26T20:09:54.047Z,87.32
2019-01-26T20:12:20.711Z,87.48
2019-01-26T20:14:47.503Z,87.64
2019-01-26T20:17:14.086Z,87.48
2019-01-26T20:19:41.933Z,87.61
2019-01-26T20:22:08.775Z,87.77
2019-01-26T20:24:35.340Z,87.69
2019-01-26T20:27:02.055Z,87.60
2019-01-26T20:29:28.788Z,87.63
2019-01-26T20:31:55.727Z,87.60
2019-01-26T20:34:22.345Z,87.75
2019-01-26T20:36:49.014Z,87.98
2019-01-26T20:39:15.701Z,88.23
2019-01-26T20:41:42.346Z,88.13
2019-01-26T20:44:09.137Z,87.87
2019-01-26T20:46:36.106Z,87.75
2019-01-26T20:49:02.958Z,87.54
2019-01-26T20:51:29.669Z,87.34
2019-01-26T20:53:59.494Z,87.43
2019-01-26T20:56:27.569Z,87.32
2019-01-26T20:58:55.149Z,87.30
2019-01-26T21:01:23.304Z,87.25
2019-01-26T21:03:50.092Z,86.95
2019-01-26T21:06:16.740Z,86.50
2019-01-26T21:08:43.417Z,86.69
2019-01-26T21:11:11.117Z,86.78
2019-01-26T21:13:39.840Z,87.03
2019-01-26T21:16:06.554Z,87.11
2019-01-26T21:18:34.507Z,87.00
2019-01-26T21:21:01.104Z,86.93
2019-01-26T21:23:27.747Z,87.21
2019-01-26T21:25:54.658Z,87.22
2019-01-26T21:28:21.709Z,87.01
2019-01-26T21:30:49.780Z,87.17
2019-01-26T21:33:18.652Z,87.33
2019-01-26T21:35:51.352Z,87.47
2019-01-26T21:38:18.102Z,86.90
2019-01-26T21:40:44.602Z,86.21
2019-01-26T21:43:13.319Z,85.67
2019-01-26T21:45:40.013Z,85.04
2019-01-26T21:48:06.619Z,84.53
2019-01-26T21:50:33.128Z,84.23
2019-01-26T21:52:59.715Z,84.16
2019-01-26T21:55:29.386Z,83.71
2019-01-26T21:57:56.035Z,83.93
2019-01-26T22:00:25.221Z,83.69
2019-01-26T22:02:51.915Z,83.72
2019-01-26T22:05:18.553Z,83.87
2019-01-26T22:07:46.247Z,84.42
2019-01-26T22:10:15.641Z,84.90
2019-01-26T22:12:42.250Z,84.85
2019-01-26T22:15:10.374Z,84.87
2019-01-26T22:17:37.250Z,84.72
2019-01-26T22:20:06.576Z,84.87
2019-01-26T22:22:33.179Z,84.86
2019-01-26T22:24:59.653Z,85.00
2019-01-26T22:27:26.228Z,85.18
2019-01-26T22:29:53.131Z,84.80
2019-01-26T22:32:20.028Z,84.66
2019-01-26T22:34:46.682Z,84.62
2019-01-26T22:37:13.514Z,84.99
2019-01-26T22:39:40.033Z,85.08
2019-01-26T22:42:06.712Z,84.76
2019-01-26T22:44:33.303Z,84.89
2019-01-26T22:47:02.143Z,85.08
2019-01-26T22:49:28.682Z,84.90
2019-01-26T22:51:56.325Z,84.83
2019-01-26T22:54:22.940Z,84.72
2019-01-26T22:56:49.453Z,84.71
2019-01-26T22:59:20.110Z,84.72
2019-01-26T23:01:47.162Z,84.49
2019-01-26T23:04:29.283Z,84.36
2019-01-26T23:07:31.608Z,84.59
2019-01-26T23:10:45.389Z,85.01
2019-01-26T23:13:17.157Z,85.03
2019-01-26T23:16:33.994Z,85.68
2019-01-26T23:19:12.171Z,85.93
2019-01-26T23:22:08.714Z,85.83
2019-01-26T23:25:03.899Z,85.96
2019-01-26T23:27:46.941Z,85.69
2019-01-26T23:30:45.213Z,85.83
2019-01-26T23:33:12.046Z,85.72
2019-01-26T23:35:38.738Z,85.08
2019-01-26T23:38:05.493Z,84.99
2019-01-26T23:40:32.034Z,84.98
2019-01-26T23:42:58.572Z,85.10
2019-01-26T23:45:27.264Z,85.56
2019-01-26T23:47:54.277Z,85.72
2019-01-26T23:50:20.727Z,86.04
2019-01-26T23:52:47.542Z,85.76
2019-01-26T23:55:14.236Z,85.69
2019-01-26T23:57:41.019Z,85.81
